createdAt,value
2019-02-23T00:00:12.514Z,142452.86
2019-02-23T00:05:07.719Z,142448.16
2019-02-23T00:10:06.019Z,142477.39
2019-02-23T00:15:07.079Z,142483.19
2019-02-23T00:20:05.881Z,142489.03
2019-02-23T00:25:01.821Z,142487.89
2019-02-23T00:29:57.740Z,142485.53
2019-02-23T00:34:53.683Z,142492.53
2019-02-23T00:39:49.643Z,142493.73
2019-02-23T00:44:46.471Z,142497.23
2019-02-23T00:49:42.369Z,142517.06
2019-02-23T00:54:38.266Z,142515.92
2019-02-23T00:59:34.210Z,142532.27
2019-02-23T01:04:30.106Z,142542.81
2019-02-23T01:09:26.020Z,142553.31
2019-02-23T01:14:21.920Z,142583.69
2019-02-23T01:19:17.908Z,142579.00
2019-02-23T01:24:13.814Z,142581.34
2019-02-23T01:29:09.712Z,142574.34
2019-02-23T01:34:05.819Z,142559.16
2019-02-23T01:39:01.920Z,142543.95
2019-02-23T01:44:00.403Z,142485.53
2019-02-23T01:48:55.629Z,142476.19
2019-02-23T01:53:51.531Z,142456.36
2019-02-23T01:58:47.457Z,142452.86
2019-02-23T02:03:43.357Z,142421.33
2019-02-23T02:08:39.656Z,142392.11
2019-02-23T02:13:35.658Z,142383.97
2019-02-23T02:18:31.556Z,142352.45
2019-02-23T02:23:27.449Z,142347.75
2019-02-23T02:28:23.342Z,142317.39
2019-02-23T02:33:19.242Z,142292.88
2019-02-23T02:38:15.345Z,142259.06
2019-02-23T02:43:11.243Z,142249.73
2019-02-23T02:48:07.147Z,142214.69
2019-02-23T02:53:03.019Z,142205.36
2019-02-23T02:57:58.953Z,142201.86
2019-02-23T03:02:54.827Z,142159.87
2019-02-23T03:07:50.734Z,142168.02
2019-02-23T03:12:46.697Z,142140.02
2019-02-23T03:17:42.591Z,142133.03
2019-02-23T03:22:38.588Z,142114.36
2019-02-23T03:27:34.591Z,142112.06
2019-02-23T03:32:30.486Z,142075.89
2019-02-23T03:37:26.404Z,142070.06
2019-02-23T03:42:22.296Z,142042.06
2019-02-23T03:47:18.196Z,142015.22
2019-02-23T03:52:14.093Z,141995.42
2019-02-23T03:57:10.047Z,141981.45
2019-02-23T04:02:06.131Z,141969.78
2019-02-23T04:07:02.122Z,141976.78
2019-02-23T04:11:58.016Z,141968.64
2019-02-23T04:16:53.912Z,141960.47
2019-02-23T04:21:49.811Z,141925.50
2019-02-23T04:26:45.818Z,141888.20
2019-02-23T04:31:41.699Z,141892.84
2019-02-23T04:36:37.596Z,141922.00
2019-02-23T04:41:33.489Z,141868.36
2019-02-23T04:46:29.388Z,141883.52
2019-02-23T04:51:25.487Z,141885.86
2019-02-23T04:56:21.417Z,141853.20
2019-02-23T05:01:17.317Z,141832.27
2019-02-23T05:06:13.294Z,141876.53
2019-02-23T05:11:09.188Z,141853.20
2019-02-23T05:16:05.082Z,141839.25
2019-02-23T05:21:00.979Z,141843.89
2019-02-23T05:25:56.900Z,141887.02
2019-02-23T05:30:52.798Z,141888.20
2019-02-23T05:35:48.843Z,141834.56
2019-02-23T05:40:44.761Z,141841.59
2019-02-23T05:45:41.265Z,141836.91
2019-02-23T05:50:37.125Z,141864.88
2019-02-23T05:55:33.029Z,141866.06
2019-02-23T06:00:29.014Z,141847.42
2019-02-23T06:05:24.915Z,141881.19
2019-02-23T06:10:20.811Z,141878.87
2019-02-23T06:15:18.835Z,141871.84
2019-02-23T06:20:14.836Z,141876.53
2019-02-23T06:25:10.750Z,141883.52
2019-02-23T06:30:11.378Z,141876.53
2019-02-23T06:35:08.653Z,141870.70
2019-02-23T06:40:07.294Z,141873.05
2019-02-23T06:45:10.102Z,141890.50
2019-02-23T06:50:06.591Z,141890.50
2019-02-23T06:55:02.686Z,141885.86
2019-02-23T06:59:58.577Z,141911.48
2019-02-23T07:04:54.472Z,141948.80
2019-02-23T07:09:50.371Z,141988.44
2019-02-23T07:14:50.531Z,142046.75
2019-02-23T07:19:46.563Z,142058.37
2019-02-23T07:24:42.562Z,142059.58
2019-02-23T07:29:38.574Z,142070.06
2019-02-23T07:34:34.466Z,142080.53
2019-02-23T07:39:30.374Z,142084.08
2019-02-23T07:44:26.269Z,142051.39
2019-02-23T07:49:22.194Z,142044.41
2019-02-23T07:54:18.087Z,142060.72
2019-02-23T07:59:14.070Z,142063.06
2019-02-23T08:04:09.970Z,142133.03
2019-02-23T08:09:06.863Z,142159.87
2019-02-23T08:14:02.807Z,142198.36
2019-02-23T08:18:59.218Z,142189.03
2019-02-23T08:23:55.198Z,142256.72
2019-02-23T08:28:51.540Z,142305.75
2019-02-23T08:33:47.487Z,142337.27
2019-02-23T08:38:43.787Z,142334.92
2019-02-23T08:43:39.866Z,142375.78
2019-02-23T08:48:36.804Z,142408.50
2019-02-23T08:53:33.862Z,142462.20
2019-02-23T08:58:29.859Z,142449.36
2019-02-23T09:03:25.753Z,142483.19
2019-02-23T09:08:21.637Z,142513.58
2019-02-23T09:13:17.547Z,142555.66
2019-02-23T09:18:14.912Z,142628.09
2019-02-23T09:23:10.868Z,142667.84
2019-02-23T09:28:06.790Z,142735.59
2019-02-23T09:33:02.818Z,142766.06
2019-02-23T09:37:59.621Z,142756.70
2019-02-23T09:42:55.531Z,142868.97
2019-02-23T09:47:51.472Z,142900.55
2019-02-23T09:52:47.472Z,142929.78
2019-02-23T09:57:43.450Z,142936.83
2019-02-23T10:02:39.389Z,142962.56
2019-02-23T10:07:36.358Z,142974.27
2019-02-23T10:12:33.326Z,143007.02
2019-02-23T10:17:29.362Z,143039.77
2019-02-23T10:22:27.299Z,143100.66
2019-02-23T10:27:23.417Z,143142.78
2019-02-23T10:32:20.556Z,143135.77
2019-02-23T10:37:16.559Z,143211.84
2019-02-23T10:42:13.869Z,143282.16
2019-02-23T10:47:10.037Z,143317.33
2019-02-23T10:52:06.114Z,143360.69
2019-02-23T10:57:02.087Z,143411.06
2019-02-23T11:01:58.051Z,143432.17
2019-02-23T11:06:55.165Z,143414.58
2019-02-23T11:11:51.165Z,143416.94
2019-02-23T11:16:47.074Z,143440.34
2019-02-23T11:21:43.010Z,143435.69
2019-02-23T11:26:38.947Z,143473.19
2019-02-23T11:31:34.838Z,143535.33
2019-02-23T11:36:30.732Z,143574.00
2019-02-23T11:41:26.658Z,143518.88
2019-02-23T11:46:22.560Z,143576.36
2019-02-23T11:51:18.462Z,143649.06
2019-02-23T11:56:14.368Z,143679.56
2019-02-23T12:01:11.422Z,143710.03
2019-02-23T12:06:07.373Z,143685.44
2019-02-23T12:11:03.318Z,143721.77
2019-02-23T12:15:59.222Z,143752.34
2019-02-23T12:20:55.170Z,143820.41
2019-02-23T12:25:51.164Z,143879.05
2019-02-23T12:30:47.055Z,143836.83
2019-02-23T12:35:43.005Z,143914.31
2019-02-23T12:40:47.519Z,143897.84
2019-02-23T12:45:44.379Z,143908.44
2019-02-23T12:50:40.355Z,143937.77
2019-02-23T12:55:36.388Z,143996.48
2019-02-23T13:00:32.328Z,143972.97
2019-02-23T13:05:28.463Z,144046.97
2019-02-23T13:10:26.746Z,144025.83
2019-02-23T13:15:48.898Z,144043.45
2019-02-23T13:21:01.063Z,144041.09
2019-02-23T13:26:10.157Z,144032.86
2019-02-23T13:31:22.129Z,144123.34
2019-02-23T13:36:43.193Z,144130.39
2019-02-23T13:41:51.741Z,144139.78
2019-02-23T13:47:00.694Z,144138.63
2019-02-23T13:52:03.424Z,144176.22
2019-02-23T13:57:17.717Z,144197.39
2019-02-23T14:02:34.211Z,144200.91
2019-02-23T14:07:48.793Z,144222.08
2019-02-23T14:13:13.048Z,144231.42
2019-02-23T14:18:24.623Z,144226.75
2019-02-23T14:23:36.286Z,144257.31
2019-02-23T14:28:41.998Z,144334.86
2019-02-23T14:33:47.753Z,144236.16
2019-02-23T14:39:02.316Z,144254.95
2019-02-23T14:44:20.509Z,144283.16
2019-02-23T14:49:25.991Z,144310.22
2019-02-23T14:54:31.499Z,144296.09
2019-02-23T14:59:34.030Z,144252.59
2019-02-23T15:04:51.647Z,144198.55
2019-02-23T15:10:14.204Z,144170.34
2019-02-23T15:15:29.725Z,144191.50
2019-02-23T15:20:32.153Z,144142.16
2019-02-23T15:26:09.553Z,144099.88
2019-02-23T15:31:24.404Z,144045.77
2019-02-23T15:36:40.992Z,144089.23
2019-02-23T15:41:56.281Z,144049.33
2019-02-23T15:47:16.871Z,143982.38
2019-02-23T15:52:15.884Z,143913.09
2019-02-23T15:57:11.851Z,143862.63
2019-02-23T16:02:08.009Z,143849.73
2019-02-23T16:07:04.924Z,143789.88
2019-02-23T16:12:01.690Z,143712.39
2019-02-23T16:16:59.387Z,143685.44
2019-02-23T16:21:57.687Z,143642.03
2019-02-23T16:26:53.787Z,143604.50
2019-02-23T16:31:50.571Z,143581.03
2019-02-23T16:36:48.351Z,143549.38
2019-02-23T16:41:45.175Z,143556.39
2019-02-23T16:46:41.843Z,143508.34
2019-02-23T16:51:38.823Z,143520.08
2019-02-23T16:56:34.879Z,143488.44
2019-02-23T17:01:31.371Z,143439.19
2019-02-23T17:06:27.464Z,143391.16
2019-02-23T17:11:24.113Z,143374.72
2019-02-23T17:16:20.110Z,143305.59
2019-02-23T17:21:16.102Z,143316.17
2019-02-23T17:26:12.635Z,143272.78
2019-02-23T17:31:10.071Z,143259.91
2019-02-23T17:36:07.199Z,143210.70
2019-02-23T17:41:05.938Z,143194.31
2019-02-23T17:46:05.539Z,143187.31
2019-02-23T17:51:01.674Z,143201.33
2019-02-23T17:55:57.606Z,143175.58
2019-02-23T18:00:54.254Z,143163.86
2019-02-23T18:05:52.399Z,143131.09
2019-02-23T18:10:49.202Z,143138.11
2019-02-23T18:15:49.836Z,143119.37
2019-02-23T18:20:48.360Z,143067.84
2019-02-23T18:25:46.051Z,143046.81
2019-02-23T18:30:42.053Z,143004.66
2019-02-23T18:35:39.053Z,143029.25
2019-02-23T18:40:35.081Z,142995.30
2019-02-23T18:45:35.872Z,142981.28
2019-02-23T18:50:31.895Z,142975.42
2019-02-23T18:55:27.809Z,142940.34
2019-02-23T19:00:43.611Z,142941.48
2019-02-23T19:05:49.694Z,142936.83
2019-02-23T19:10:46.495Z,142943.84
2019-02-23T19:15:46.850Z,142920.42
2019-02-23T19:20:42.847Z,142898.19
2019-02-23T19:25:38.750Z,142875.97
2019-02-23T19:30:34.741Z,142845.56
2019-02-23T19:35:30.643Z,142789.42
2019-02-23T19:40:26.591Z,142768.41
2019-02-23T19:45:24.353Z,142691.19
2019-02-23T19:50:24.085Z,142676.00
2019-02-23T19:55:20.060Z,142686.53
2019-02-23T20:00:15.963Z,142632.73
2019-02-23T20:05:11.915Z,142593.05
2019-02-23T20:10:09.307Z,142548.61
2019-02-23T20:15:13.522Z,142518.27
2019-02-23T20:20:09.515Z,142511.22
2019-02-23T20:25:07.024Z,142520.56
2019-02-23T20:30:06.223Z,142515.92
2019-02-23T20:35:02.325Z,142485.53
2019-02-23T20:39:58.225Z,142532.27
2019-02-23T20:44:54.224Z,142472.69
2019-02-23T20:49:50.414Z,142441.17
2019-02-23T20:54:47.213Z,142434.17
2019-02-23T20:59:43.202Z,142444.66
2019-02-23T21:04:39.108Z,142409.64
2019-02-23T21:09:35.011Z,142407.30
2019-02-23T21:14:30.909Z,142492.53
2019-02-23T21:19:26.809Z,142410.80
2019-02-23T21:24:22.708Z,142401.45
2019-02-23T21:29:18.743Z,142438.81
2019-02-23T21:34:14.650Z,142418.98
2019-02-23T21:39:10.545Z,142394.45
2019-02-23T21:44:07.287Z,142473.84
2019-02-23T21:49:03.183Z,142499.58
2019-02-23T21:53:59.157Z,142501.88
2019-02-23T21:58:55.043Z,142482.05
2019-02-23T22:03:50.944Z,142555.66
2019-02-23T22:08:46.836Z,142573.16
2019-02-23T22:13:42.809Z,142570.84
2019-02-23T22:18:38.702Z,142650.28
2019-02-23T22:23:34.613Z,142656.14
2019-02-23T22:28:30.549Z,142700.55
2019-02-23T22:33:26.445Z,142737.95
2019-02-23T22:38:22.347Z,142749.70
2019-02-23T22:43:18.242Z,142752.00
2019-02-23T22:48:14.166Z,142745.00
2019-02-23T22:53:10.069Z,142740.34
2019-02-23T22:58:05.964Z,142719.25
2019-02-23T23:03:01.876Z,142739.16
2019-02-23T23:07:57.777Z,142704.05
2019-02-23T23:12:53.669Z,142692.34
2019-02-23T23:17:49.585Z,142658.48
2019-02-23T23:22:45.478Z,142667.84
2019-02-23T23:27:49.099Z,142640.94
2019-02-23T23:32:39.297Z,142608.19
2019-02-23T23:37:35.191Z,142569.66
2019-02-23T23:42:31.097Z,142520.56
2019-02-23T23:47:26.990Z,142560.31
2019-02-23T23:52:22.891Z,142588.34
2019-02-23T23:57:18.785Z,142590.69
